Time;durP1;ratioP1;P1;durP2;ratioP2;P2;SDS_P1;SDS_P2;PMS_P1;PMS_P2;Temp;Humidity;BMP_temperature;BMP_pressure;BME280_temperature;BME280_humidity;BME280_pressure;Samples;Min_cycle;Max_cycle;Signal;HPM_P1;HPM_P2
2023/09/18 00:00:35;;;;;;;10.07;4.15;;;20.20;99.90;;;;;;5027571;28;20072;-65
2023/09/18 00:03:02;;;;;;;9.52;3.40;;;20.30;99.90;;;;;;5027139;28;20028;-65
2023/09/18 00:05:28;;;;;;;10.20;3.90;;;20.30;99.90;;;;;;5026273;28;20052;-63
2023/09/18 00:07:54;;;;;;;5.93;3.47;;;20.30;99.90;;;;;;5032360;28;20479;-65
2023/09/18 00:10:19;;;;;;;11.18;3.88;;;20.20;99.90;;;;;;5028108;28;20041;-65
2023/09/18 00:12:45;;;;;;;9.20;4.00;;;20.30;99.90;;;;;;5025110;28;20029;-65
2023/09/18 00:15:10;;;;;;;12.73;4.40;;;20.20;99.90;;;;;;5024225;28;20223;-65
2023/09/18 00:17:36;;;;;;;12.02;4.03;;;20.20;99.90;;;;;;5021480;28;20033;-66
2023/09/18 00:20:06;;;;;;;9.18;3.55;;;20.30;99.90;;;;;;5023439;28;20083;-65
2023/09/18 00:22:31;;;;;;;11.10;3.83;;;20.30;99.90;;;;;;5024799;28;20083;-67
2023/09/18 00:24:57;;;;;;;9.00;3.03;;;20.30;99.90;;;;;;5023579;28;20029;-65
2023/09/18 00:27:23;;;;;;;13.10;4.18;;;20.20;99.90;;;;;;5006683;28;20468;-65
2023/09/18 00:29:48;;;;;;;8.25;3.42;;;20.40;99.90;;;;;;5011555;28;20029;-65
2023/09/18 00:32:14;;;;;;;7.32;3.70;;;20.40;99.90;;;;;;5023079;28;20026;-66
2023/09/18 00:34:40;;;;;;;10.40;3.90;;;20.40;99.90;;;;;;5024938;28;20383;-65
2023/09/18 00:37:05;;;;;;;13.40;3.55;;;20.40;99.90;;;;;;5023004;28;20584;-65
2023/09/18 00:39:31;;;;;;;6.20;3.08;;;20.40;99.90;;;;;;5023865;28;20136;-68
2023/09/18 00:41:57;;;;;;;13.88;4.03;;;20.40;99.90;;;;;;5021910;28;20414;-65
2023/09/18 00:44:23;;;;;;;8.00;3.65;;;20.40;99.90;;;;;;5024860;28;20053;-65
2023/09/18 00:46:51;;;;;;;9.70;3.92;;;20.40;99.90;;;;;;5024665;28;20026;-65
2023/09/18 00:49:19;;;;;;;6.22;3.63;;;20.50;99.90;;;;;;5029244;28;20083;-65
2023/09/18 00:51:47;;;;;;;9.02;3.83;;;20.40;99.90;;;;;;5022078;28;20032;-66
2023/09/18 00:54:16;;;;;;;10.73;3.53;;;20.40;99.90;;;;;;5022305;28;20030;-65
2023/09/18 00:56:42;;;;;;;8.90;3.17;;;20.40;99.90;;;;;;5040507;28;20043;-66
2023/09/18 00:59:09;;;;;;;6.78;4.00;;;20.40;99.90;;;;;;5025269;28;20026;-67
2023/09/18 01:01:35;;;;;;;4.65;3.38;;;20.40;99.90;;;;;;5025966;28;20040;-65
2023/09/18 01:04:01;;;;;;;8.40;3.08;;;20.40;99.90;;;;;;5026419;28;20029;-66
2023/09/18 01:06:30;;;;;;;15.70;3.85;;;20.30;99.90;;;;;;5021356;28;20029;-64
2023/09/18 01:08:56;;;;;;;11.85;3.53;;;20.30;99.90;;;;;;5023765;28;20010;-66
2023/09/18 01:11:33;;;;;;;4.75;3.35;;;20.20;99.90;;;;;;5022974;28;20037;-66
2023/09/18 01:14:18;;;;;;;9.35;3.58;;;20.20;99.90;;;;;;5026560;28;20032;-66
2023/09/18 01:17:07;;;;;;;6.07;3.50;;;20.20;99.90;;;;;;5026573;28;20113;-65
2023/09/18 01:19:45;;;;;;;7.80;3.25;;;20.20;99.90;;;;;;5026134;28;20079;-65
2023/09/18 01:22:16;;;;;;;7.47;3.70;;;20.10;99.90;;;;;;5022585;28;20033;-66
2023/09/18 01:24:43;;;;;;;12.32;3.63;;;20.10;99.90;;;;;;5017900;28;20025;-66
2023/09/18 01:27:14;;;;;;;10.55;3.47;;;20.10;99.90;;;;;;4997938;28;20418;-65
2023/09/18 01:29:39;;;;;;;9.63;3.60;;;20.10;99.90;;;;;;5021728;28;20037;-65
2023/09/18 01:32:05;;;;;;;6.65;3.50;;;20.00;99.90;;;;;;5022323;28;20014;-65
2023/09/18 01:34:41;;;;;;;6.88;3.00;;;19.90;99.90;;;;;;5040093;28;20380;-65
2023/09/18 01:37:12;;;;;;;9.20;3.65;;;19.90;99.90;;;;;;5022533;28;20037;-66
2023/09/18 01:39:39;;;;;;;9.27;3.83;;;19.90;99.90;;;;;;5020402;28;20029;-65
2023/09/18 01:42:06;;;;;;;6.80;3.05;;;19.90;99.90;;;;;;5021407;28;20040;-65
2023/09/18 01:44:35;;;;;;;14.73;3.20;;;19.80;99.90;;;;;;5038901;28;20971;-66
2023/09/18 01:47:12;;;;;;;7.47;3.67;;;19.80;99.90;;;;;;5025603;28;20386;-65
2023/09/18 01:49:39;;;;;;;9.00;3.33;;;19.80;99.90;;;;;;5023667;28;20029;-65
2023/09/18 01:52:07;;;;;;;9.90;3.40;;;19.80;99.90;;;;;;5021680;28;20026;-65
2023/09/18 01:54:34;;;;;;;10.20;4.70;;;19.80;99.90;;;;;;5022929;28;20041;-66
2023/09/18 01:56:59;;;;;;;8.23;3.40;;;19.80;99.90;;;;;;5017256;28;20033;-65
2023/09/18 01:59:26;;;;;;;5.20;2.92;;;19.90;99.90;;;;;;5022946;28;20036;-65
2023/09/18 02:01:53;;;;;;;9.45;3.25;;;20.00;99.90;;;;;;5015181;28;20120;-65
2023/09/18 02:04:19;;;;;;;7.70;3.90;;;20.10;99.90;;;;;;5025770;28;20013;-66
2023/09/18 02:06:47;;;;;;;8.10;2.92;;;20.10;99.90;;;;;;5021463;28;20937;-65
2023/09/18 02:09:12;;;;;;;7.63;3.22;;;20.20;99.90;;;;;;5017441;28;20129;-66
2023/09/18 02:11:39;;;;;;;9.02;4.30;;;20.20;99.90;;;;;;5011530;28;20082;-65
2023/09/18 02:14:09;;;;;;;9.63;3.70;;;20.20;99.90;;;;;;5017047;28;20088;-65
2023/09/18 02:16:35;;;;;;;8.68;3.25;;;20.20;99.90;;;;;;5021562;28;20032;-65
2023/09/18 02:19:04;;;;;;;14.45;4.13;;;20.30;99.90;;;;;;5024280;28;20033;-65
2023/09/18 02:21:31;;;;;;;9.80;3.60;;;20.30;99.90;;;;;;5018687;28;20112;-64
2023/09/18 02:23:56;;;;;;;7.00;3.00;;;20.30;99.90;;;;;;5021671;28;20116;-65
2023/09/18 02:26:23;;;;;;;9.40;3.53;;;20.30;99.90;;;;;;4996424;28;20110;-65
2023/09/18 02:28:51;;;;;;;9.40;3.05;;;20.30;99.90;;;;;;5023934;28;20053;-65
2023/09/18 02:31:17;;;;;;;8.25;3.20;;;20.30;99.90;;;;;;5013674;28;20120;-65
2023/09/18 02:33:43;;;;;;;6.43;3.13;;;20.30;99.90;;;;;;5024478;28;20187;-65
2023/09/18 02:36:08;;;;;;;8.43;3.35;;;20.20;99.90;;;;;;5021975;28;20033;-65
2023/09/18 02:38:34;;;;;;;11.15;3.40;;;20.20;99.90;;;;;;5018417;28;20029;-65
2023/09/18 02:41:00;;;;;;;8.48;3.60;;;20.10;99.90;;;;;;5020054;28;20044;-65
2023/09/18 02:43:26;;;;;;;14.18;4.90;;;20.10;99.90;;;;;;5024169;28;20025;-65
2023/09/18 02:45:52;;;;;;;13.40;4.10;;;20.00;99.90;;;;;;5021252;28;20021;-66
2023/09/18 02:48:18;;;;;;;8.30;3.60;;;20.00;99.90;;;;;;5024204;28;20071;-66
2023/09/18 02:50:44;;;;;;;10.07;4.00;;;19.90;99.90;;;;;;5017732;28;20034;-65
2023/09/18 02:53:21;;;;;;;7.60;3.95;;;19.90;99.90;;;;;;5020426;28;20036;-64
2023/09/18 02:55:49;;;;;;;6.97;3.70;;;19.90;99.90;;;;;;5018128;28;20103;-65
2023/09/18 02:58:16;;;;;;;9.75;4.35;;;19.80;99.90;;;;;;5020564;28;20112;-65
2023/09/18 03:00:46;;;;;;;9.57;3.72;;;19.80;99.90;;;;;;5023605;28;20061;-65
2023/09/18 03:03:13;;;;;;;9.48;3.63;;;19.70;99.90;;;;;;5022027;28;20014;-65
2023/09/18 03:05:39;;;;;;;6.57;3.38;;;19.60;99.90;;;;;;5020179;28;20033;-64
2023/09/18 03:08:05;;;;;;;11.00;4.40;;;19.50;99.90;;;;;;5022614;28;20039;-67
2023/09/18 03:10:41;;;;;;;14.35;3.90;;;19.50;99.90;;;;;;5019589;28;20892;-65
2023/09/18 03:13:08;;;;;;;11.60;4.05;;;19.40;99.90;;;;;;5022472;28;20043;-65
2023/09/18 03:15:34;;;;;;;14.77;3.70;;;19.40;99.90;;;;;;5025404;28;20033;-65
2023/09/18 03:18:03;;;;;;;8.52;3.83;;;19.40;99.90;;;;;;5041653;28;20037;-65
2023/09/18 03:20:29;;;;;;;9.48;4.32;;;19.40;99.90;;;;;;5023919;28;20033;-66
2023/09/18 03:22:59;;;;;;;8.73;3.30;;;19.30;99.90;;;;;;5024549;28;20398;-65
2023/09/18 03:25:25;;;;;;;9.00;2.95;;;19.30;99.90;;;;;;5022289;28;20049;-65
2023/09/18 03:27:52;;;;;;;7.97;4.70;;;19.30;99.90;;;;;;5000166;28;20188;-64
2023/09/18 03:30:23;;;;;;;6.20;3.67;;;19.40;99.90;;;;;;5026900;28;20112;-65
2023/09/18 03:32:50;;;;;;;11.70;3.05;;;19.40;99.90;;;;;;5024679;28;20038;-65
2023/09/18 03:35:18;;;;;;;15.02;4.03;;;19.40;99.90;;;;;;5027491;28;20033;-65
2023/09/18 03:37:53;;;;;;;9.50;3.05;;;19.40;99.90;;;;;;5024075;28;20029;-65
2023/09/18 03:40:20;;;;;;;11.77;3.90;;;19.40;99.90;;;;;;5026838;28;20509;-65
2023/09/18 03:42:46;;;;;;;12.55;3.85;;;19.40;99.90;;;;;;5026915;28;20022;-65
2023/09/18 03:45:12;;;;;;;12.00;4.72;;;19.30;99.90;;;;;;5025360;28;20026;-66
2023/09/18 03:47:39;;;;;;;15.05;4.47;;;19.30;99.90;;;;;;5026027;28;20033;-66
2023/09/18 03:50:06;;;;;;;13.95;3.78;;;19.30;99.90;;;;;;5026264;28;20026;-65
2023/09/18 03:52:32;;;;;;;7.82;3.08;;;19.30;99.90;;;;;;5029318;28;20033;-65
2023/09/18 03:54:57;;;;;;;13.27;4.10;;;19.30;99.90;;;;;;5022986;28;20095;-65
2023/09/18 03:57:23;;;;;;;16.33;3.67;;;19.30;99.90;;;;;;5023878;28;20072;-66
2023/09/18 03:59:49;;;;;;;12.88;3.53;;;19.30;99.90;;;;;;5018799;28;20042;-65
2023/09/18 04:02:14;;;;;;;10.02;3.60;;;19.20;99.90;;;;;;5024505;28;20033;-64
2023/09/18 04:04:40;;;;;;;11.98;3.42;;;19.20;99.90;;;;;;5024995;28;20033;-64
2023/09/18 04:07:06;;;;;;;9.85;3.65;;;19.20;99.90;;;;;;5023020;28;20033;-65
2023/09/18 04:09:32;;;;;;;17.50;4.72;;;19.20;99.90;;;;;;5040452;28;20029;-64
2023/09/18 04:11:58;;;;;;;10.27;3.38;;;19.20;99.90;;;;;;5019925;28;20414;-65
2023/09/18 04:14:24;;;;;;;9.88;3.00;;;19.20;99.90;;;;;;5025697;28;20033;-65
2023/09/18 04:16:50;;;;;;;10.23;3.45;;;19.10;99.90;;;;;;5026634;28;20017;-65
2023/09/18 04:19:15;;;;;;;12.18;3.97;;;19.10;99.90;;;;;;5024583;28;20738;-65
2023/09/18 04:21:41;;;;;;;14.63;3.78;;;19.10;99.90;;;;;;5023705;28;20155;-65
2023/09/18 04:24:07;;;;;;;9.52;3.83;;;19.00;99.90;;;;;;5019483;28;20036;-65
2023/09/18 04:26:33;;;;;;;10.68;4.05;;;18.90;99.90;;;;;;5003987;28;20029;-65
2023/09/18 04:29:03;;;;;;;15.27;4.40;;;18.80;99.90;;;;;;5023948;28;20391;-66
2023/09/18 04:31:29;;;;;;;9.60;3.38;;;18.70;99.90;;;;;;5024817;28;20041;-65
2023/09/18 04:33:55;;;;;;;12.20;3.83;;;18.60;99.90;;;;;;5025325;28;20455;-65
2023/09/18 04:36:20;;;;;;;14.90;4.45;;;18.60;99.90;;;;;;5022631;28;20502;-66
2023/09/18 04:38:46;;;;;;;8.45;3.25;;;18.50;99.90;;;;;;5020922;28;20037;-65
2023/09/18 04:41:11;;;;;;;8.57;4.20;;;18.50;99.90;;;;;;5025575;28;20676;-64
2023/09/18 04:43:40;;;;;;;11.70;4.57;;;18.50;99.90;;;;;;5020530;28;20384;-65
2023/09/18 04:46:06;;;;;;;13.85;4.25;;;18.50;99.90;;;;;;5024403;28;21258;-65
2023/09/18 04:48:32;;;;;;;13.35;4.05;;;18.40;99.90;;;;;;5041978;28;20120;-65
2023/09/18 04:50:59;;;;;;;9.82;3.47;;;18.40;99.90;;;;;;5023430;28;20038;-65
2023/09/18 04:53:25;;;;;;;13.02;4.15;;;18.40;99.90;;;;;;5025651;28;20080;-65
2023/09/18 04:55:50;;;;;;;15.80;5.03;;;18.40;99.90;;;;;;5025454;28;20021;-65
2023/09/18 04:58:17;;;;;;;11.23;3.47;;;18.30;99.90;;;;;;5026443;28;20033;-65
2023/09/18 05:00:43;;;;;;;18.05;3.80;;;18.30;99.90;;;;;;5026393;28;20022;-65
2023/09/18 05:03:10;;;;;;;14.60;4.22;;;18.30;99.90;;;;;;5021997;28;20036;-65
2023/09/18 05:05:36;;;;;;;12.85;3.17;;;18.30;99.90;;;;;;5023558;28;20021;-66
2023/09/18 05:08:03;;;;;;;11.57;4.20;;;18.40;99.90;;;;;;5024849;28;20390;-65
2023/09/18 05:10:29;;;;;;;8.80;3.80;;;18.30;99.90;;;;;;5025360;28;20495;-65
2023/09/18 05:12:58;;;;;;;8.65;3.60;;;18.40;99.90;;;;;;5020187;28;20445;-65
2023/09/18 05:15:26;;;;;;;9.65;3.85;;;18.40;99.90;;;;;;5026387;28;20172;-65
2023/09/18 05:17:55;;;;;;;13.40;3.65;;;18.40;99.90;;;;;;5023851;28;20033;-65
2023/09/18 05:20:24;;;;;;;17.80;4.10;;;18.40;99.90;;;;;;5022089;28;20041;-66
2023/09/18 05:22:52;;;;;;;9.43;3.30;;;18.40;99.90;;;;;;5035740;28;20099;-65
2023/09/18 05:25:18;;;;;;;12.93;3.50;;;18.50;99.90;;;;;;5025247;28;20040;-65
2023/09/18 05:27:44;;;;;;;7.43;3.78;;;18.50;99.90;;;;;;5006504;28;20498;-65
2023/09/18 05:30:13;;;;;;;12.65;3.20;;;18.50;99.90;;;;;;5023706;28;20104;-61
2023/09/18 05:32:38;;;;;;;11.98;2.97;;;18.60;99.90;;;;;;5024837;28;20528;-65
2023/09/18 05:35:06;;;;;;;11.35;3.30;;;18.60;99.90;;;;;;5019906;28;20029;-65
2023/09/18 05:37:32;;;;;;;15.90;3.35;;;18.60;99.90;;;;;;5021799;28;20711;-65
2023/09/18 05:39:58;;;;;;;12.68;3.10;;;18.60;99.90;;;;;;5023446;28;20033;-65
2023/09/18 05:42:24;;;;;;;15.65;2.55;;;18.60;99.90;;;;;;5023091;28;20032;-65
2023/09/18 05:44:49;;;;;;;9.93;3.13;;;18.60;99.90;;;;;;5023451;28;20577;-65
2023/09/18 05:47:15;;;;;;;10.98;2.90;;;18.60;99.90;;;;;;5023998;28;20075;-65
2023/09/18 05:49:40;;;;;;;8.73;2.90;;;18.60;99.90;;;;;;5021033;28;20025;-66
2023/09/18 05:52:06;;;;;;;8.45;3.00;;;18.70;99.90;;;;;;5018906;28;20295;-65
2023/09/18 05:54:31;;;;;;;8.70;2.78;;;18.70;99.90;;;;;;5022085;28;20025;-65
2023/09/18 05:56:57;;;;;;;7.35;2.35;;;18.80;99.90;;;;;;5022651;28;20029;-66
2023/09/18 05:59:23;;;;;;;12.40;3.25;;;18.80;99.90;;;;;;5022271;28;20072;-65
2023/09/18 06:01:49;;;;;;;8.30;2.72;;;18.80;99.90;;;;;;5023095;28;20073;-65
2023/09/18 06:04:16;;;;;;;10.40;2.38;;;18.90;99.90;;;;;;5021375;28;20033;-64
2023/09/18 06:06:42;;;;;;;12.45;3.25;;;18.90;99.90;;;;;;5018829;28;20018;-65
2023/09/18 06:09:08;;;;;;;5.93;2.63;;;18.90;99.90;;;;;;5024408;28;20109;-65
2023/09/18 06:11:33;;;;;;;11.98;3.22;;;19.00;99.90;;;;;;5023796;28;20119;-65
2023/09/18 06:13:59;;;;;;;12.50;2.83;;;19.00;99.90;;;;;;5023466;28;20040;-65
2023/09/18 06:16:25;;;;;;;15.35;2.20;;;19.00;99.90;;;;;;5022884;28;20041;-65
2023/09/18 06:18:50;;;;;;;10.07;3.03;;;19.00;99.90;;;;;;5021631;28;20037;-65
2023/09/18 06:21:16;;;;;;;9.82;3.10;;;19.00;99.90;;;;;;5023197;28;20041;-65
2023/09/18 06:23:41;;;;;;;9.13;2.35;;;19.00;99.90;;;;;;5023651;28;20048;-65
2023/09/18 06:26:07;;;;;;;8.63;2.50;;;19.10;99.90;;;;;;5024453;28;20060;-64
2023/09/18 06:28:32;;;;;;;7.25;2.83;;;19.10;99.90;;;;;;4997041;28;20111;-65
2023/09/18 06:30:58;;;;;;;6.68;2.22;;;19.20;99.90;;;;;;5021202;28;20045;-65
2023/09/18 06:33:24;;;;;;;12.95;2.92;;;19.20;99.90;;;;;;5017910;28;20029;-65
2023/09/18 06:35:51;;;;;;;6.60;2.85;;;19.20;99.90;;;;;;5003979;28;20053;-65
2023/09/18 06:38:17;;;;;;;13.07;2.40;;;19.30;99.90;;;;;;5042684;28;20025;-64
2023/09/18 06:40:42;;;;;;;9.00;2.40;;;19.30;99.90;;;;;;5023670;28;21291;-65
2023/09/18 06:43:08;;;;;;;6.60;1.95;;;19.30;99.90;;;;;;5024159;28;20234;-65
2023/09/18 06:45:34;;;;;;;7.70;2.60;;;19.30;99.90;;;;;;5021021;28;20049;-65
2023/09/18 06:48:03;;;;;;;6.13;2.17;;;19.40;99.90;;;;;;5021776;28;20029;-66
2023/09/18 06:50:28;;;;;;;9.40;2.22;;;19.50;99.90;;;;;;5021617;28;20040;-65
2023/09/18 06:52:54;;;;;;;7.03;1.83;;;19.50;99.90;;;;;;5019561;28;20033;-65
2023/09/18 06:55:19;;;;;;;10.32;2.33;;;19.50;99.90;;;;;;5019466;28;20037;-65
2023/09/18 06:57:47;;;;;;;7.55;2.60;;;19.50;99.90;;;;;;5019497;28;20037;-66
2023/09/18 07:00:15;;;;;;;9.35;1.55;;;19.70;99.90;;;;;;5021683;28;20664;-61
2023/09/18 07:02:40;;;;;;;9.73;2.22;;;19.70;99.90;;;;;;5022362;28;20109;-65
2023/09/18 07:05:06;;;;;;;8.25;1.92;;;19.80;99.90;;;;;;5020850;28;20518;-65
2023/09/18 07:07:31;;;;;;;6.55;1.83;;;19.90;99.90;;;;;;5024222;28;20104;-65
2023/09/18 07:09:57;;;;;;;5.63;2.15;;;20.00;99.90;;;;;;5022150;28;20036;-65
2023/09/18 07:12:23;;;;;;;6.20;1.50;;;20.10;99.90;;;;;;5021463;28;20076;-65
2023/09/18 07:14:48;;;;;;;7.78;2.05;;;20.20;99.90;;;;;;5018208;28;21722;-66
2023/09/18 07:17:15;;;;;;;3.10;1.58;;;20.30;99.90;;;;;;5022507;28;20071;-65
2023/09/18 07:19:41;;;;;;;3.38;1.42;;;20.30;99.90;;;;;;5024050;28;20026;-66
2023/09/18 07:22:06;;;;;;;9.27;1.60;;;20.30;99.90;;;;;;5021259;28;20580;-66
2023/09/18 07:24:32;;;;;;;6.25;1.30;;;20.40;99.90;;;;;;5021273;28;20033;-66
2023/09/18 07:26:58;;;;;;;8.45;1.42;;;20.40;99.90;;;;;;5001883;28;21239;-65
2023/09/18 07:29:25;;;;;;;5.38;1.33;;;20.40;99.90;;;;;;5024187;28;20037;-65
2023/09/18 07:31:51;;;;;;;13.25;1.73;;;20.40;99.90;;;;;;5022334;28;20453;-65
2023/09/18 07:34:17;;;;;;;5.28;1.48;;;20.50;99.90;;;;;;4989445;28;20133;-65
2023/09/18 07:36:44;;;;;;;4.70;1.10;;;20.60;99.90;;;;;;5011368;28;20383;-66
2023/09/18 07:39:11;;;;;;;4.03;2.13;;;20.60;99.90;;;;;;5055125;28;20029;-65
2023/09/18 07:41:37;;;;;;;12.55;1.45;;;20.70;99.90;;;;;;5023555;28;20122;-66
2023/09/18 07:44:03;;;;;;;5.50;1.20;;;20.70;99.90;;;;;;5024662;28;20057;-65
2023/09/18 07:46:28;;;;;;;2.83;1.00;;;20.70;99.90;;;;;;5020839;28;20032;-65
2023/09/18 07:48:54;;;;;;;4.85;1.25;;;20.80;99.90;;;;;;5017803;28;20108;-66
2023/09/18 07:51:20;;;;;;;3.85;1.35;;;20.80;99.90;;;;;;5019928;28;20029;-64
2023/09/18 07:53:46;;;;;;;10.73;1.13;;;20.90;99.90;;;;;;5024065;28;20040;-65
2023/09/18 07:56:12;;;;;;;4.70;1.45;;;20.90;99.90;;;;;;5024265;28;20040;-66
2023/09/18 07:58:38;;;;;;;4.57;1.65;;;20.90;99.90;;;;;;5018632;28;20045;-65
2023/09/18 08:01:09;;;;;;;4.07;1.10;;;21.00;99.90;;;;;;5039584;28;20426;-65
2023/09/18 08:03:35;;;;;;;4.90;1.65;;;21.20;99.90;;;;;;5024097;28;20024;-65
2023/09/18 08:06:00;;;;;;;3.45;1.20;;;21.40;99.90;;;;;;5019370;28;20026;-65
2023/09/18 08:08:26;;;;;;;3.25;1.20;;;21.40;99.90;;;;;;5027218;28;20147;-65
2023/09/18 08:10:53;;;;;;;8.20;1.85;;;21.30;99.90;;;;;;5021933;28;20036;-66
2023/09/18 08:13:23;;;;;;;4.00;1.17;;;21.30;99.90;;;;;;5023250;28;20033;-65
2023/09/18 08:15:48;;;;;;;7.47;1.25;;;21.20;99.90;;;;;;5022057;28;20030;-66
2023/09/18 08:18:14;;;;;;;4.50;1.25;;;21.00;99.90;;;;;;5026111;28;20041;-63
2023/09/18 08:20:43;;;;;;;1.80;0.85;;;20.90;99.90;;;;;;5001702;28;20056;-65
2023/09/18 08:23:10;;;;;;;3.38;1.10;;;20.90;99.90;;;;;;5022765;28;20030;-65
2023/09/18 08:25:36;;;;;;;2.53;1.65;;;20.80;99.90;;;;;;5027427;28;20052;-66
2023/09/18 08:28:03;;;;;;;6.65;1.05;;;20.80;99.90;;;;;;5004714;28;20041;-64
2023/09/18 08:30:29;;;;;;;5.40;1.63;;;20.90;99.90;;;;;;5026864;28;20028;-64
2023/09/18 08:32:54;;;;;;;3.60;1.40;;;20.90;99.90;;;;;;5024908;28;20029;-65
2023/09/18 08:35:20;;;;;;;3.15;1.10;;;21.00;99.90;;;;;;5022086;28;20025;-65
2023/09/18 08:37:46;;;;;;;1.95;1.10;;;21.20;99.90;;;;;;5025573;28;20041;-65
2023/09/18 08:40:13;;;;;;;4.07;1.27;;;21.20;99.90;;;;;;5025369;28;20034;-63
2023/09/18 08:42:44;;;;;;;4.47;1.08;;;21.30;99.90;;;;;;5025848;28;20075;-65
2023/09/18 08:45:14;;;;;;;2.75;1.20;;;21.30;99.90;;;;;;5026382;28;20523;-65
2023/09/18 08:47:40;;;;;;;6.15;1.75;;;21.40;99.90;;;;;;5023412;28;20095;-65
2023/09/18 08:50:08;;;;;;;7.95;1.77;;;21.50;99.90;;;;;;5023003;28;20483;-66
2023/09/18 08:52:35;;;;;;;3.17;1.20;;;21.70;99.90;;;;;;5023930;28;20517;-65
2023/09/18 08:55:02;;;;;;;5.65;1.45;;;21.70;99.90;;;;;;5023570;28;20395;-65
2023/09/18 08:57:30;;;;;;;3.72;1.52;;;21.80;99.90;;;;;;5023907;28;20025;-65
2023/09/18 08:59:57;;;;;;;5.43;1.17;;;21.80;99.90;;;;;;5020596;28;20026;-66
2023/09/18 09:02:23;;;;;;;5.18;1.35;;;22.00;99.90;;;;;;5024866;28;20491;-66
2023/09/18 09:04:49;;;;;;;3.30;0.95;;;22.00;99.90;;;;;;5022686;28;20146;-66
2023/09/18 09:07:15;;;;;;;6.55;1.50;;;22.30;99.90;;;;;;5022533;28;20585;-65
2023/09/18 09:09:41;;;;;;;2.83;1.48;;;22.40;99.90;;;;;;5024810;28;20226;-65
2023/09/18 09:12:07;;;;;;;8.15;1.30;;;22.40;99.90;;;;;;5023694;28;20060;-65
2023/09/18 09:14:33;;;;;;;6.97;1.50;;;22.60;99.90;;;;;;5023168;28;20025;-65
2023/09/18 09:16:59;;;;;;;2.00;1.00;;;22.90;99.90;;;;;;5025682;28;20033;-65
2023/09/18 09:19:34;;;;;;;6.72;1.10;;;23.00;99.90;;;;;;5025868;28;20033;-65
2023/09/18 09:22:01;;;;;;;2.03;1.00;;;23.00;99.90;;;;;;5020457;28;20084;-65
2023/09/18 09:24:37;;;;;;;1.42;0.80;;;23.10;99.90;;;;;;5018749;28;20021;-65
2023/09/18 09:27:03;;;;;;;1.58;1.00;;;23.10;99.90;;;;;;5023208;28;20025;-66
2023/09/18 09:29:29;;;;;;;8.90;1.88;;;23.10;99.90;;;;;;5004538;28;20041;-65
2023/09/18 09:31:56;;;;;;;2.30;1.08;;;23.10;99.90;;;;;;5023850;28;20052;-66
2023/09/18 09:34:26;;;;;;;2.53;1.23;;;23.10;99.90;;;;;;5024408;28;20033;-65
2023/09/18 09:36:56;;;;;;;3.35;1.20;;;22.90;99.90;;;;;;5020013;28;20040;-65
2023/09/18 09:39:24;;;;;;;5.32;1.33;;;22.70;99.90;;;;;;5018546;28;20173;-66
2023/09/18 09:41:51;;;;;;;2.65;1.30;;;22.70;99.90;;;;;;5023808;28;20037;-66
2023/09/18 09:44:18;;;;;;;2.22;1.00;;;22.60;99.90;;;;;;5026120;28;20114;-65
2023/09/18 09:46:51;;;;;;;5.45;1.38;;;22.60;99.90;;;;;;5017459;28;20079;-66
2023/09/18 09:49:19;;;;;;;2.55;0.90;;;22.70;99.90;;;;;;5025448;28;20422;-66
2023/09/18 09:51:45;;;;;;;6.35;1.13;;;22.50;99.90;;;;;;5024114;28;20029;-66
2023/09/18 09:54:12;;;;;;;3.08;1.30;;;22.40;99.90;;;;;;5021703;28;20033;-66
2023/09/18 09:56:50;;;;;;;2.28;1.00;;;22.50;99.90;;;;;;5031914;28;20040;-65
2023/09/18 09:59:18;;;;;;;2.67;1.10;;;22.50;99.90;;;;;;5039545;28;20096;-65
2023/09/18 10:01:48;;;;;;;2.80;1.15;;;22.50;99.90;;;;;;5024137;28;21128;-65
2023/09/18 10:04:17;;;;;;;4.65;1.75;;;22.50;99.90;;;;;;5016740;28;20040;-65
2023/09/18 10:06:56;;;;;;;2.67;1.38;;;22.60;99.90;;;;;;5021450;28;20036;-65
2023/09/18 10:09:29;;;;;;;3.75;1.15;;;22.80;99.90;;;;;;5023775;28;20032;-65
2023/09/18 10:11:57;;;;;;;3.63;1.15;;;23.00;99.90;;;;;;5038039;28;20033;-66
2023/09/18 10:14:35;;;;;;;3.72;1.50;;;23.10;99.90;;;;;;5021897;28;20053;-65
2023/09/18 10:17:14;;;;;;;4.68;1.45;;;23.50;99.90;;;;;;5017663;28;20087;-64
2023/09/18 10:20:23;;;;;;;3.35;1.67;;;23.70;99.90;;;;;;4994732;28;20045;-65
2023/09/18 10:22:56;;;;;;;4.55;1.85;;;23.70;99.90;;;;;;5000560;28;20077;-65
2023/09/18 10:25:24;;;;;;;2.58;1.05;;;24.20;99.90;;;;;;5003052;28;20030;-65
2023/09/18 10:27:58;;;;;;;3.33;1.17;;;24.20;99.90;;;;;;4987824;28;20506;-65
2023/09/18 10:30:25;;;;;;;2.08;0.77;;;24.50;99.90;;;;;;5021930;28;20114;-65
2023/09/18 10:32:51;;;;;;;1.60;0.90;;;24.60;99.90;;;;;;4965823;28;20048;-65
2023/09/18 10:35:19;;;;;;;5.13;1.48;;;25.00;99.90;;;;;;5021789;28;20120;-65
2023/09/18 10:37:46;;;;;;;4.68;1.02;;;25.10;99.90;;;;;;5022732;28;20036;-66
2023/09/18 10:40:12;;;;;;;2.53;1.13;;;25.20;99.90;;;;;;5024353;28;20025;-66
2023/09/18 10:42:39;;;;;;;5.93;1.08;;;25.00;99.90;;;;;;5027111;28;20038;-66
2023/09/18 10:45:10;;;;;;;4.43;1.33;;;24.60;99.90;;;;;;5020442;28;20376;-66
2023/09/18 10:47:41;;;;;;;5.28;1.10;;;24.60;99.90;;;;;;5022380;28;20121;-64
2023/09/18 10:50:09;;;;;;;7.50;1.65;;;24.50;99.90;;;;;;5019604;28;20026;-67
2023/09/18 10:52:36;;;;;;;3.88;1.15;;;24.40;99.90;;;;;;5020803;28;20050;-65
2023/09/18 10:55:05;;;;;;;4.53;1.15;;;24.60;99.90;;;;;;5020861;28;20040;-65
2023/09/18 10:57:38;;;;;;;4.13;0.98;;;24.50;99.90;;;;;;5023439;28;20065;-65
2023/09/18 11:00:13;;;;;;;1.92;0.98;;;24.40;99.90;;;;;;5022569;28;20014;-65
2023/09/18 11:02:40;;;;;;;3.88;0.90;;;24.30;99.90;;;;;;5023340;28;20386;-65
2023/09/18 11:05:06;;;;;;;3.90;0.98;;;24.60;99.90;;;;;;5021896;28;20577;-64
2023/09/18 11:07:32;;;;;;;3.45;1.27;;;24.40;99.90;;;;;;5024597;28;20113;-65
2023/09/18 11:09:57;;;;;;;1.15;0.95;;;24.50;99.90;;;;;;5023567;28;20382;-66
2023/09/18 11:12:43;;;;;;;1.88;0.95;;;24.50;99.90;;;;;;5024099;28;20041;-65
2023/09/18 11:15:10;;;;;;;2.95;1.40;;;24.40;99.90;;;;;;5019040;28;20721;-65
2023/09/18 11:17:40;;;;;;;4.00;0.98;;;24.20;99.90;;;;;;5022001;28;20402;-65
2023/09/18 11:20:17;;;;;;;2.55;0.95;;;24.00;99.90;;;;;;5026641;28;20052;-65
2023/09/18 11:22:54;;;;;;;1.90;0.82;;;23.90;99.90;;;;;;5027067;28;20141;-65
2023/09/18 11:25:41;;;;;;;2.28;0.90;;;24.10;99.90;;;;;;5027533;28;20030;-66
2023/09/18 11:28:18;;;;;;;3.17;1.38;;;24.00;99.90;;;;;;5000794;28;20040;-65
2023/09/18 11:31:02;;;;;;;3.97;0.75;;;24.20;99.90;;;;;;5026989;28;20064;-66
2023/09/18 11:33:35;;;;;;;;;;;24.40;99.90;;;;;;5057613;28;20180;-66
2023/09/18 11:36:06;;;;;;;6.72;1.13;;;24.30;99.90;;;;;;5026908;28;20385;-65
2023/09/18 11:38:33;;;;;;;1.83;0.80;;;24.40;99.90;;;;;;5025828;28;20025;-66
2023/09/18 11:41:01;;;;;;;1.85;0.60;;;24.60;99.90;;;;;;5025516;28;20126;-67
2023/09/18 11:43:35;;;;;;;2.47;0.85;;;24.60;99.90;;;;;;5024447;28;20032;-66
2023/09/18 11:46:04;;;;;;;3.28;0.77;;;24.50;99.90;;;;;;5022436;28;20034;-66
2023/09/18 11:48:33;;;;;;;2.47;1.05;;;24.60;99.90;;;;;;4999250;28;20049;-66
2023/09/18 11:51:03;;;;;;;1.45;0.63;;;24.50;99.90;;;;;;5024715;28;20026;-66
2023/09/18 11:53:33;;;;;;;5.20;0.82;;;24.50;99.90;;;;;;5025400;28;20036;-66
2023/09/18 11:55:58;;;;;;;2.60;0.93;;;24.70;99.90;;;;;;5027747;28;20781;-66
2023/09/18 11:58:24;;;;;;;3.00;0.95;;;24.60;99.90;;;;;;5026026;28;20108;-65
2023/09/18 12:00:52;;;;;;;2.22;0.95;;;24.50;99.90;;;;;;5024599;28;20091;-66
2023/09/18 12:03:26;;;;;;;2.92;1.13;;;24.50;99.90;;;;;;5026084;28;20555;-65
2023/09/18 12:06:05;;;;;;;7.25;1.00;;;24.50;99.90;;;;;;5025128;28;20075;-65
2023/09/18 12:08:31;;;;;;;12.02;1.58;;;24.50;99.90;;;;;;5030801;28;20091;-66
2023/09/18 12:10:58;;;;;;;4.25;1.02;;;24.40;99.90;;;;;;5022170;28;20056;-65
2023/09/18 12:13:27;;;;;;;4.18;0.95;;;24.40;99.90;;;;;;5024782;28;20029;-66
2023/09/18 12:15:58;;;;;;;3.17;0.77;;;24.40;99.90;;;;;;4996400;28;20041;-66
2023/09/18 12:18:25;;;;;;;1.80;0.70;;;24.40;99.90;;;;;;5025492;28;20033;-65
2023/09/18 12:20:51;;;;;;;2.78;0.70;;;24.50;99.90;;;;;;5025708;28;20025;-65
2023/09/18 12:23:20;;;;;;;2.00;0.80;;;24.50;99.90;;;;;;5024444;28;20072;-66
2023/09/18 12:25:56;;;;;;;3.70;0.90;;;24.50;99.90;;;;;;5026307;28;20037;-65
2023/09/18 12:28:22;;;;;;;2.20;0.88;;;24.60;99.90;;;;;;5002688;28;20048;-65
2023/09/18 12:30:50;;;;;;;3.88;0.90;;;24.60;99.90;;;;;;5026744;28;20025;-65
2023/09/18 12:33:17;;;;;;;1.80;0.85;;;24.70;99.90;;;;;;5024587;28;20033;-64
2023/09/18 12:35:42;;;;;;;7.82;1.20;;;24.70;99.90;;;;;;5019367;28;20041;-66
2023/09/18 12:38:18;;;;;;;1.33;1.00;;;24.80;99.90;;;;;;5025166;28;20228;-66
2023/09/18 12:40:46;;;;;;;1.17;0.63;;;24.80;99.90;;;;;;5020458;28;20060;-65
2023/09/18 12:43:12;;;;;;;4.32;1.13;;;24.90;99.90;;;;;;5022053;28;20182;-65
2023/09/18 12:45:38;;;;;;;2.35;0.88;;;24.70;99.70;;;;;;5024869;28;20517;-65
2023/09/18 12:48:05;;;;;;;2.30;1.27;;;24.70;99.80;;;;;;5023069;28;20018;-65